Time;durP1;ratioP1;P1;durP2;ratioP2;P2;SDS_P1;SDS_P2;PMS_P1;PMS_P2;Temp;Humidity;BMP_temperature;BMP_pressure;BME280_temperature;BME280_humidity;BME280_pressure;Samples;Min_cycle;Max_cycle;Signal;HPM_P1;HPM_P2
2022/06/09 00:01:27;;;;;;;14.18;4.32;;;14.70;99.90;;;;;;5089525;28;20047;-64
2022/06/09 00:04:14;;;;;;;18.65;4.90;;;14.60;99.90;;;;;;5101689;28;20040;-64
2022/06/09 00:06:50;;;;;;;18.98;4.72;;;14.60;99.90;;;;;;5103426;28;20093;-63
2022/06/09 00:09:20;;;;;;;15.90;4.47;;;14.50;99.90;;;;;;5098710;28;20044;-64
2022/06/09 00:11:50;;;;;;;17.42;5.03;;;14.50;99.90;;;;;;5087776;28;20044;-63
2022/06/09 00:14:17;;;;;;;17.08;4.78;;;14.50;99.90;;;;;;5088988;28;20337;-63
2022/06/09 00:16:43;;;;;;;17.98;5.00;;;14.40;99.90;;;;;;5104670;28;20456;-63
2022/06/09 00:19:10;;;;;;;16.98;4.57;;;14.40;99.90;;;;;;5101236;28;20031;-63
2022/06/09 00:21:36;;;;;;;21.50;5.63;;;14.40;99.90;;;;;;5089624;28;20052;-63
2022/06/09 00:24:03;;;;;;;21.33;5.00;;;14.40;99.90;;;;;;5090956;28;20040;-65
2022/06/09 00:26:29;;;;;;;19.70;4.80;;;14.30;99.90;;;;;;5102631;28;20028;-63
2022/06/09 00:28:55;;;;;;;22.42;4.95;;;14.30;99.90;;;;;;5100496;28;20055;-63
2022/06/09 00:31:21;;;;;;;18.13;4.38;;;14.30;99.90;;;;;;5090496;28;20109;-63
2022/06/09 00:33:47;;;;;;;15.00;5.03;;;14.20;99.90;;;;;;5102616;28;20425;-64
2022/06/09 00:36:13;;;;;;;17.17;4.97;;;14.20;99.90;;;;;;5103912;28;20366;-63
2022/06/09 00:38:39;;;;;;;17.25;4.78;;;14.20;99.90;;;;;;5086827;28;20040;-63
2022/06/09 00:41:05;;;;;;;15.90;4.63;;;14.10;99.90;;;;;;5101243;28;20470;-64
2022/06/09 00:43:32;;;;;;;17.40;4.90;;;14.10;99.90;;;;;;5086372;28;20082;-63
2022/06/09 00:45:57;;;;;;;20.58;5.15;;;14.10;99.90;;;;;;5103395;28;20482;-62
2022/06/09 00:48:38;;;;;;;17.83;4.72;;;14.10;99.90;;;;;;5101655;28;20070;-63
2022/06/09 00:51:13;;;;;;;13.93;3.97;;;14.00;99.90;;;;;;5087973;28;20040;-65
2022/06/09 00:53:41;;;;;;;18.13;4.72;;;14.00;99.90;;;;;;5082438;28;20126;-63
2022/06/09 00:56:10;;;;;;;19.80;4.60;;;14.00;99.90;;;;;;5104018;28;20093;-63
2022/06/09 00:58:39;;;;;;;16.75;4.72;;;13.90;99.90;;;;;;5100211;28;20044;-63
2022/06/09 01:01:10;;;;;;;14.85;4.68;;;13.90;99.90;;;;;;5100796;28;20040;-63
2022/06/09 01:03:42;;;;;;;16.38;4.68;;;13.90;99.90;;;;;;5101376;28;20543;-63
2022/06/09 01:06:14;;;;;;;17.52;4.75;;;13.90;99.90;;;;;;5103778;28;20028;-63
2022/06/09 01:08:47;;;;;;;16.08;4.93;;;13.80;99.90;;;;;;5100377;28;20040;-63
2022/06/09 01:11:12;;;;;;;21.75;5.38;;;13.80;99.90;;;;;;5099464;28;20077;-64
2022/06/09 01:13:39;;;;;;;15.45;4.47;;;13.70;99.90;;;;;;5102390;28;20487;-63
2022/06/09 01:16:10;;;;;;;16.13;4.93;;;13.80;99.90;;;;;;5103815;28;20447;-64
2022/06/09 01:18:59;;;;;;;17.95;4.93;;;13.70;99.90;;;;;;5084365;28;20068;-63
2022/06/09 01:21:51;;;;;;;20.60;5.53;;;13.70;99.90;;;;;;5090869;28;20052;-64
2022/06/09 01:24:52;;;;;;;15.75;4.55;;;13.70;99.90;;;;;;5062657;28;20163;-63
2022/06/09 01:27:35;;;;;;;18.13;5.30;;;13.70;99.90;;;;;;5091204;28;20468;-63
2022/06/09 01:30:19;;;;;;;15.33;4.70;;;13.60;99.90;;;;;;5083313;28;20384;-63
2022/06/09 01:32:54;;;;;;;16.15;4.68;;;13.60;99.90;;;;;;5102965;28;20044;-63
2022/06/09 01:35:44;;;;;;;17.88;4.72;;;13.60;99.90;;;;;;5103069;28;20108;-63
2022/06/09 01:38:10;;;;;;;22.75;5.07;;;13.50;99.90;;;;;;5103610;28;20078;-62
2022/06/09 01:40:36;;;;;;;19.83;5.50;;;13.50;99.90;;;;;;5098712;28;20128;-63
2022/06/09 01:43:05;;;;;;;16.08;4.75;;;13.50;99.90;;;;;;5101988;28;20047;-63
2022/06/09 01:45:51;;;;;;;17.65;5.38;;;13.50;99.90;;;;;;5068886;28;20474;-63
2022/06/09 01:48:20;;;;;;;16.85;4.93;;;13.50;99.90;;;;;;5086890;28;20054;-63
2022/06/09 01:50:57;;;;;;;18.63;5.43;;;13.50;99.90;;;;;;5099983;28;20031;-63
2022/06/09 01:53:33;;;;;;;15.18;5.45;;;13.50;99.90;;;;;;5102672;28;20664;-63
2022/06/09 01:56:22;;;;;;;19.38;5.63;;;13.50;99.90;;;;;;5083163;28;20093;-63
2022/06/09 01:58:53;;;;;;;26.30;6.50;;;13.50;99.90;;;;;;5099054;28;20043;-63
2022/06/09 02:01:25;;;;;;;22.17;5.50;;;13.40;99.90;;;;;;5102407;28;20036;-63
2022/06/09 02:03:56;;;;;;;18.23;6.57;;;13.40;99.90;;;;;;5084170;28;20093;-63
2022/06/09 02:06:22;;;;;;;21.80;5.95;;;13.40;99.90;;;;;;5101623;28;20039;-63
2022/06/09 02:08:48;;;;;;;20.17;6.28;;;13.30;99.90;;;;;;5100040;28;20132;-63
2022/06/09 02:11:14;;;;;;;19.38;5.57;;;13.30;99.90;;;;;;5101440;28;20118;-64
2022/06/09 02:13:45;;;;;;;20.48;6.00;;;13.30;99.90;;;;;;5101843;28;20067;-63
2022/06/09 02:16:16;;;;;;;18.15;6.07;;;13.30;99.90;;;;;;5097621;28;20043;-63
2022/06/09 02:18:46;;;;;;;18.73;6.30;;;13.30;99.90;;;;;;5098246;28;20036;-63
2022/06/09 02:21:31;;;;;;;18.50;6.93;;;13.40;99.90;;;;;;5083759;28;20056;-63
2022/06/09 02:23:57;;;;;;;14.38;5.65;;;13.40;99.90;;;;;;5100050;28;20040;-63
2022/06/09 02:26:23;;;;;;;18.70;6.50;;;13.30;99.90;;;;;;5086362;28;20130;-63
2022/06/09 02:28:49;;;;;;;16.38;6.68;;;13.40;99.90;;;;;;5097800;28;20482;-63
2022/06/09 02:31:17;;;;;;;22.00;6.55;;;13.40;99.90;;;;;;5101396;28;20128;-64
2022/06/09 02:33:43;;;;;;;17.33;6.20;;;13.50;99.90;;;;;;5101716;28;20097;-63
2022/06/09 02:36:09;;;;;;;18.38;6.88;;;13.50;99.90;;;;;;5090224;28;20039;-63
2022/06/09 02:38:34;;;;;;;21.27;6.65;;;13.50;99.90;;;;;;5099402;28;20124;-65
2022/06/09 02:41:01;;;;;;;24.50;7.45;;;13.50;99.90;;;;;;5098611;28;20023;-63
2022/06/09 02:43:27;;;;;;;22.35;7.20;;;13.50;99.90;;;;;;5103060;28;20036;-63
2022/06/09 02:45:53;;;;;;;24.20;7.32;;;13.50;99.90;;;;;;5101473;28;20115;-63
2022/06/09 02:48:20;;;;;;;19.85;6.97;;;13.50;99.90;;;;;;5089428;28;20044;-64
2022/06/09 02:50:46;;;;;;;22.42;6.85;;;13.50;99.90;;;;;;5097022;28;20448;-64
2022/06/09 02:53:13;;;;;;;21.58;7.50;;;13.60;99.90;;;;;;5085331;28;20042;-63
2022/06/09 02:55:39;;;;;;;22.67;7.53;;;13.60;99.90;;;;;;5085874;28;20363;-63
2022/06/09 02:58:05;;;;;;;19.65;7.10;;;13.60;99.90;;;;;;5102068;28;20367;-65
2022/06/09 03:00:34;;;;;;;22.15;7.00;;;13.60;99.90;;;;;;5079080;28;20144;-63
2022/06/09 03:03:02;;;;;;;20.85;6.90;;;13.60;99.90;;;;;;5098530;28;20028;-63
2022/06/09 03:05:30;;;;;;;18.25;6.90;;;13.60;99.90;;;;;;5090223;28;20032;-63
2022/06/09 03:07:56;;;;;;;17.73;6.80;;;13.60;99.90;;;;;;5099916;28;20377;-63
2022/06/09 03:10:22;;;;;;;21.23;6.72;;;13.50;99.90;;;;;;5072028;28;20055;-64
2022/06/09 03:12:49;;;;;;;18.17;6.85;;;13.60;99.90;;;;;;5100399;28;20051;-63
2022/06/09 03:15:17;;;;;;;25.00;7.20;;;13.60;99.90;;;;;;5100222;28;20052;-63
2022/06/09 03:17:44;;;;;;;20.60;7.05;;;13.50;99.90;;;;;;5099944;28;20043;-63
2022/06/09 03:20:38;;;;;;;19.45;6.90;;;13.50;99.90;;;;;;5097779;28;20031;-64
2022/06/09 03:23:03;;;;;;;18.25;7.03;;;13.40;99.90;;;;;;5083844;28;20478;-63
2022/06/09 03:25:29;;;;;;;22.75;6.50;;;13.40;99.90;;;;;;5102332;28;20118;-63
2022/06/09 03:27:55;;;;;;;16.58;6.47;;;13.40;99.90;;;;;;5101083;28;20115;-63
2022/06/09 03:30:21;;;;;;;17.60;6.30;;;13.30;99.90;;;;;;5096823;28;20040;-64
2022/06/09 03:32:46;;;;;;;17.35;6.55;;;13.30;99.90;;;;;;5102306;28;20130;-63
2022/06/09 03:35:12;;;;;;;22.00;6.95;;;13.40;99.90;;;;;;5100751;28;20028;-64
2022/06/09 03:37:38;;;;;;;16.83;6.95;;;13.40;99.90;;;;;;5103672;28;20043;-62
2022/06/09 03:40:05;;;;;;;22.60;7.35;;;13.30;99.90;;;;;;5101640;28;20036;-63
2022/06/09 03:42:31;;;;;;;19.83;6.93;;;13.30;99.90;;;;;;5086136;28;20032;-63
2022/06/09 03:44:56;;;;;;;14.77;6.63;;;13.30;99.90;;;;;;5104903;28;20136;-62
2022/06/09 03:47:22;;;;;;;14.82;6.57;;;13.40;99.90;;;;;;5105669;28;20051;-63
2022/06/09 03:49:48;;;;;;;18.23;6.47;;;13.30;99.90;;;;;;5099691;28;20043;-63
2022/06/09 03:52:14;;;;;;;19.55;7.32;;;13.40;99.90;;;;;;5089303;28;20487;-63
2022/06/09 03:54:40;;;;;;;15.70;5.97;;;13.30;99.90;;;;;;5104959;28;20044;-64
2022/06/09 03:57:05;;;;;;;16.73;6.45;;;13.40;99.90;;;;;;5090983;28;20074;-63
2022/06/09 03:59:31;;;;;;;19.23;7.05;;;13.40;99.90;;;;;;5101590;28;20043;-63
2022/06/09 04:01:57;;;;;;;14.88;6.30;;;13.50;99.90;;;;;;5104605;28;20044;-63
2022/06/09 04:04:23;;;;;;;17.50;6.15;;;13.50;99.90;;;;;;5103643;28;20050;-63
2022/06/09 04:06:49;;;;;;;15.77;6.38;;;13.60;99.90;;;;;;5105477;28;20028;-63
2022/06/09 04:09:15;;;;;;;16.33;7.03;;;13.60;99.90;;;;;;5101334;28;20451;-63
2022/06/09 04:11:41;;;;;;;14.85;6.28;;;13.60;99.90;;;;;;5102286;28;20123;-64
2022/06/09 04:14:07;;;;;;;13.57;5.90;;;13.70;99.90;;;;;;5105205;28;20114;-63
2022/06/09 04:16:38;;;;;;;13.20;6.18;;;13.70;99.90;;;;;;5103510;28;20035;-65
2022/06/09 04:19:07;;;;;;;14.57;6.05;;;13.70;99.90;;;;;;5067141;28;20048;-63
2022/06/09 04:21:34;;;;;;;13.02;5.72;;;13.80;99.90;;;;;;5084565;28;20063;-63
2022/06/09 04:24:00;;;;;;;13.20;5.20;;;13.80;99.90;;;;;;5089156;28;20036;-63
2022/06/09 04:26:28;;;;;;;14.20;5.20;;;13.80;99.90;;;;;;5103096;28;20127;-62
2022/06/09 04:28:53;;;;;;;15.65;6.57;;;13.80;99.90;;;;;;5100517;28;20353;-63
2022/06/09 04:31:19;;;;;;;13.68;5.63;;;13.90;99.90;;;;;;5102341;28;20123;-63
2022/06/09 04:33:45;;;;;;;10.73;5.20;;;13.80;99.90;;;;;;5089186;28;20513;-62
2022/06/09 04:36:13;;;;;;;14.15;5.38;;;13.80;99.90;;;;;;5100211;28;20036;-63
2022/06/09 04:38:39;;;;;;;11.98;5.07;;;13.80;99.90;;;;;;5102838;28;20096;-64
2022/06/09 04:41:09;;;;;;;13.55;5.25;;;13.80;99.90;;;;;;5101487;28;20028;-63
2022/06/09 04:43:36;;;;;;;11.43;4.82;;;13.80;99.90;;;;;;5086185;28;20318;-63
2022/06/09 04:46:04;;;;;;;11.77;4.55;;;13.90;99.90;;;;;;5102971;28;20047;-63
2022/06/09 04:48:30;;;;;;;7.55;4.80;;;13.80;99.90;;;;;;5103690;28;20102;-64
2022/06/09 04:50:56;;;;;;;9.38;4.50;;;13.90;99.90;;;;;;5088282;28;20032;-63
2022/06/09 04:53:22;;;;;;;8.98;4.53;;;14.10;99.90;;;;;;5067342;28;20107;-63
2022/06/09 04:55:48;;;;;;;9.55;4.75;;;14.60;99.90;;;;;;5068857;28;20050;-63
2022/06/09 04:58:14;;;;;;;7.82;4.10;;;15.50;99.90;;;;;;5001243;28;20037;-63
2022/06/09 05:00:40;;;;;;;9.98;3.85;;;16.30;99.90;;;;;;4999873;28;20041;-63
2022/06/09 05:03:11;;;;;;;10.07;4.15;;;17.00;99.90;;;;;;5004698;28;20046;-63
2022/06/09 05:05:39;;;;;;;11.63;4.20;;;17.60;99.90;;;;;;4985224;28;20109;-64
2022/06/09 05:08:05;;;;;;;10.32;4.03;;;18.20;99.90;;;;;;4995421;28;20045;-64
2022/06/09 05:10:31;;;;;;;9.80;3.90;;;18.80;99.90;;;;;;4993009;28;20069;-63
2022/06/09 05:12:57;;;;;;;11.88;4.57;;;19.30;99.90;;;;;;4987641;28;20382;-64
2022/06/09 05:15:24;;;;;;;11.45;4.47;;;19.40;99.90;;;;;;4998446;28;20050;-64
2022/06/09 05:17:51;;;;;;;14.43;4.90;;;19.30;99.90;;;;;;4999208;28;20458;-64
2022/06/09 05:20:22;;;;;;;13.90;3.67;;;19.20;99.90;;;;;;4998329;28;20098;-64
2022/06/09 05:22:48;;;;;;;15.98;4.20;;;19.40;99.90;;;;;;4999107;28;20034;-65
2022/06/09 05:25:14;;;;;;;11.25;3.78;;;19.50;99.90;;;;;;5001377;28;20041;-65
2022/06/09 05:27:41;;;;;;;9.32;3.53;;;19.20;99.90;;;;;;4999647;28;20449;-63
2022/06/09 05:30:11;;;;;;;12.85;4.10;;;19.00;99.90;;;;;;4997286;28;20482;-63
2022/06/09 05:32:37;;;;;;;12.13;5.72;;;19.10;99.90;;;;;;5000902;28;20053;-60
2022/06/09 05:35:04;;;;;;;15.65;6.22;;;19.70;99.90;;;;;;4999520;28;20037;-61
2022/06/09 05:44:50;;;;;;;11.30;4.20;;;20.40;99.90;;;;;;4995655;28;20216;-60
2022/06/09 05:45:43;;;;;;;14.97;4.63;;;20.80;99.90;;;;;;4993523;28;20348;-64
2022/06/09 05:48:09;;;;;;;12.48;3.63;;;20.90;99.90;;;;;;4993414;28;20309;-63
2022/06/09 05:50:36;;;;;;;11.80;3.92;;;20.90;99.90;;;;;;4993837;28;20250;-66
2022/06/09 05:53:02;;;;;;;8.07;3.55;;;21.10;99.90;;;;;;4999437;28;20061;-63
2022/06/09 05:55:28;;;;;;;11.20;3.65;;;21.30;99.90;;;;;;4995946;28;20050;-66
2022/06/09 05:57:53;;;;;;;7.95;3.20;;;21.70;99.90;;;;;;5000549;28;20038;-63
2022/06/09 06:00:19;;;;;;;10.82;3.10;;;21.70;99.90;;;;;;4998149;28;20106;-64
2022/06/09 06:02:45;;;;;;;7.22;2.83;;;21.90;99.90;;;;;;4998367;28;20042;-63
2022/06/09 06:06:33;;;;;;;8.85;3.10;;;22.00;99.90;;;;;;5004237;28;20038;-63
2022/06/09 06:07:57;;;;;;;9.45;3.05;;;22.10;99.90;;;;;;4999876;28;20367;-63
2022/06/09 06:10:23;;;;;;;8.00;2.80;;;22.10;99.90;;;;;;4996527;28;20037;-65
2022/06/09 06:12:49;;;;;;;5.97;3.22;;;22.00;99.90;;;;;;4987658;28;20045;-64
2022/06/09 06:15:15;;;;;;;7.88;2.88;;;22.10;99.90;;;;;;4999080;28;20050;-64
2022/06/09 06:17:40;;;;;;;5.78;2.70;;;22.10;99.90;;;;;;4999234;28;20042;-63
2022/06/09 06:20:06;;;;;;;6.72;2.60;;;22.10;99.90;;;;;;4998228;28;20042;-64
2022/06/09 06:22:32;;;;;;;11.45;2.80;;;21.90;99.90;;;;;;4997760;28;20035;-64
2022/06/09 06:24:59;;;;;;;5.85;2.95;;;22.10;99.90;;;;;;4999335;28;20037;-64
2022/06/09 06:27:26;;;;;;;9.60;3.05;;;22.10;99.90;;;;;;4985145;28;20060;-64
2022/06/09 06:29:52;;;;;;;6.20;2.55;;;22.00;99.90;;;;;;4995808;28;20064;-63
2022/06/09 06:32:18;;;;;;;8.25;2.70;;;22.30;99.90;;;;;;4998582;28;20050;-64
2022/06/09 06:34:43;;;;;;;7.45;2.65;;;22.30;99.90;;;;;;4995609;28;20038;-63
2022/06/09 06:37:09;;;;;;;8.88;2.60;;;22.70;99.90;;;;;;4999982;28;20044;-64
2022/06/09 06:39:35;;;;;;;5.75;2.60;;;22.70;99.90;;;;;;4994494;28;20458;-63
2022/06/09 06:42:00;;;;;;;8.65;2.50;;;22.20;99.90;;;;;;4991472;28;20042;-64
2022/06/09 06:44:26;;;;;;;8.65;2.60;;;21.70;99.90;;;;;;4992481;28;20493;-63
2022/06/09 06:46:51;;;;;;;9.35;2.15;;;21.20;99.90;;;;;;5000111;28;20034;-63
2022/06/09 06:49:17;;;;;;;4.75;2.25;;;20.80;99.90;;;;;;4997702;28;20458;-63
2022/06/09 06:51:43;;;;;;;6.38;1.98;;;20.50;99.90;;;;;;4995799;28;20242;-64
2022/06/09 06:54:11;;;;;;;4.03;1.95;;;20.40;99.90;;;;;;4999492;28;20034;-64
2022/06/09 06:56:37;;;;;;;5.70;1.80;;;20.30;99.90;;;;;;4998556;28;20088;-65
2022/06/09 06:59:03;;;;;;;6.80;2.20;;;20.10;99.90;;;;;;4981496;28;20416;-64
2022/06/09 07:01:30;;;;;;;7.30;2.40;;;19.70;99.90;;;;;;4996365;28;20066;-64
2022/06/09 07:03:57;;;;;;;9.27;2.25;;;19.50;99.90;;;;;;4997517;28;20030;-64
2022/06/09 07:06:22;;;;;;;6.25;2.00;;;19.50;99.90;;;;;;4997770;28;20095;-65
2022/06/09 07:08:48;;;;;;;6.90;2.05;;;19.60;99.90;;;;;;4985798;28;20038;-64
2022/06/09 07:11:14;;;;;;;10.52;2.15;;;19.70;99.90;;;;;;4997977;28;20344;-64
2022/06/09 07:13:42;;;;;;;5.43;2.08;;;19.70;99.90;;;;;;5001778;28;20041;-65
2022/06/09 07:16:08;;;;;;;5.63;1.90;;;19.90;99.90;;;;;;5002974;28;20041;-63
2022/06/09 07:18:35;;;;;;;5.57;2.10;;;20.00;99.90;;;;;;5001311;28;20034;-64
2022/06/09 07:21:02;;;;;;;4.55;1.80;;;19.90;99.90;;;;;;4982133;28;20172;-64
2022/06/09 07:23:28;;;;;;;6.80;2.08;;;20.10;99.90;;;;;;4987695;28;20401;-64
2022/06/09 07:25:56;;;;;;;5.00;1.90;;;19.90;99.90;;;;;;5000957;28;20492;-65
2022/06/09 07:28:23;;;;;;;6.90;1.73;;;19.90;99.90;;;;;;4986933;28;20042;-64
2022/06/09 07:30:49;;;;;;;5.35;1.90;;;19.80;99.90;;;;;;4987029;28;20332;-64
2022/06/09 07:33:16;;;;;;;8.02;2.30;;;19.90;99.90;;;;;;5001662;28;20066;-64
2022/06/09 07:35:42;;;;;;;4.80;1.55;;;20.00;99.90;;;;;;4999460;28;20636;-64
2022/06/09 07:38:10;;;;;;;5.57;1.73;;;20.00;99.90;;;;;;5002552;28;20030;-64
2022/06/09 07:40:39;;;;;;;8.27;1.90;;;20.00;99.90;;;;;;4997121;28;20115;-65
2022/06/09 07:43:05;;;;;;;4.28;1.77;;;20.10;99.90;;;;;;4985715;28;20471;-64
2022/06/09 07:45:31;;;;;;;4.60;1.55;;;20.10;99.90;;;;;;4985180;28;20030;-65
2022/06/09 07:47:57;;;;;;;4.32;1.85;;;20.10;99.90;;;;;;4988239;28;20426;-64
2022/06/09 07:50:23;;;;;;;6.50;1.85;;;20.10;99.90;;;;;;4999902;28;20048;-65
2022/06/09 07:52:49;;;;;;;4.68;1.73;;;20.10;99.90;;;;;;4989052;28;20042;-65
2022/06/09 07:55:16;;;;;;;11.57;3.25;;;20.10;99.90;;;;;;4970968;28;20056;-65
2022/06/09 07:57:42;;;;;;;7.93;2.20;;;20.30;99.90;;;;;;5000547;28;20358;-63
2022/06/09 08:00:14;;;;;;;6.72;1.85;;;20.20;99.90;;;;;;4999575;28;20038;-62
2022/06/09 08:02:43;;;;;;;3.63;1.30;;;20.20;99.90;;;;;;5001433;28;20057;-62
2022/06/09 08:05:09;;;;;;;4.40;1.52;;;20.10;99.90;;;;;;4997926;28;20502;-62
2022/06/09 08:07:35;;;;;;;6.35;1.80;;;20.20;99.90;;;;;;5001092;28;20094;-63
2022/06/09 08:10:03;;;;;;;5.93;1.58;;;20.10;99.90;;;;;;5001062;28;20038;-62
2022/06/09 08:12:29;;;;;;;4.75;1.80;;;20.10;99.90;;;;;;4987477;28;20057;-62
2022/06/09 08:14:54;;;;;;;5.43;1.40;;;20.10;99.90;;;;;;5001629;28;20030;-65
2022/06/09 08:17:20;;;;;;;6.75;1.60;;;20.20;99.90;;;;;;5001298;28;20070;-64
2022/06/09 08:19:47;;;;;;;6.97;1.77;;;20.10;99.90;;;;;;4997297;28;20940;-65
2022/06/09 08:22:14;;;;;;;4.93;1.50;;;20.10;99.90;;;;;;4986031;28;20401;-63
2022/06/09 08:24:40;;;;;;;9.45;2.00;;;20.00;99.90;;;;;;5000436;28;20038;-62
2022/06/09 08:27:06;;;;;;;3.70;1.75;;;19.90;99.90;;;;;;4999825;28;20038;-62
2022/06/09 08:29:32;;;;;;;8.07;2.25;;;19.90;99.90;;;;;;4986490;28;20133;-64
2022/06/09 08:31:57;;;;;;;7.38;1.75;;;19.90;99.90;;;;;;4986585;28;20128;-62
2022/06/09 08:34:24;;;;;;;5.97;1.95;;;20.00;99.90;;;;;;4987804;28;20486;-63
2022/06/09 08:36:50;;;;;;;7.32;2.00;;;20.00;99.90;;;;;;4986857;28;20034;-62
2022/06/09 08:39:15;;;;;;;8.40;1.98;;;20.00;99.90;;;;;;4996607;28;20042;-63
2022/06/09 08:41:53;;;;;;;6.95;1.92;;;20.20;99.90;;;;;;4986114;28;20121;-63
2022/06/09 08:44:36;;;;;;;4.30;1.27;;;20.20;99.90;;;;;;4999226;28;20049;-63
2022/06/09 08:47:22;;;;;;;6.15;1.98;;;20.20;99.90;;;;;;4999930;28;20038;-63
2022/06/09 08:49:54;;;;;;;4.95;1.73;;;20.10;99.90;;;;;;4997821;28;20030;-64
2022/06/09 08:52:54;;;;;;;9.48;2.78;;;20.10;99.90;;;;;;4999894;28;20062;-64
2022/06/09 08:55:35;;;;;;;5.75;1.60;;;20.10;99.90;;;;;;4980687;28;20042;-64
2022/06/09 08:58:24;;;;;;;5.47;1.60;;;20.20;99.90;;;;;;4982492;28;20058;-64
2022/06/09 09:01:17;;;;;;;6.78;1.50;;;20.10;99.90;;;;;;4952866;28;20082;-64
2022/06/09 09:03:51;;;;;;;7.70;1.88;;;20.30;99.90;;;;;;4971913;28;20058;-64
2022/06/09 09:07:01;;;;;;;5.90;1.83;;;20.40;99.90;;;;;;4981021;28;20053;-64
2022/06/09 09:09:32;;;;;;;7.50;2.28;;;20.50;99.90;;;;;;4913003;28;20072;-64
2022/06/09 09:12:21;;;;;;;3.97;1.30;;;20.50;99.90;;;;;;4968254;28;20100;-64
2022/06/09 09:14:53;;;;;;;4.40;1.23;;;20.50;99.90;;;;;;5000207;28;20081;-64
2022/06/09 09:17:41;;;;;;;4.13;1.63;;;20.40;99.90;;;;;;5000064;28;20038;-64
2022/06/09 09:20:30;;;;;;;7.47;1.88;;;20.40;99.90;;;;;;4997340;28;20187;-63
2022/06/09 09:23:24;;;;;;;3.45;1.30;;;20.40;99.90;;;;;;4981717;28;20044;-63
2022/06/09 09:26:19;;;;;;;;;;;20.50;99.90;;;;;;4996959;28;20037;-64
2022/06/09 09:28:49;;;;;;;7.18;1.45;;;20.50;99.90;;;;;;4968914;28;19986;-64
2022/06/09 09:31:43;;;;;;;4.85;1.45;;;20.50;99.90;;;;;;4999405;28;20045;-64
2022/06/09 09:34:19;;;;;;;2.93;1.13;;;20.50;99.90;;;;;;5000291;28;20045;-64
2022/06/09 09:36:49;;;;;;;5.05;1.42;;;20.50;99.90;;;;;;4983604;28;20344;-62
2022/06/09 09:39:41;;;;;;;6.03;1.52;;;20.40;99.90;;;;;;4995808;28;20089;-62
2022/06/09 09:42:20;;;;;;;6.13;1.73;;;20.40;99.90;;;;;;5000081;28;20034;-62
2022/06/09 09:45:09;;;;;;;5.05;1.38;;;20.40;99.90;;;;;;5000536;28;20481;-61
2022/06/09 09:47:57;;;;;;;6.38;1.40;;;20.30;99.90;;;;;;4995203;28;20038;-61
2022/06/09 09:50:51;;;;;;;5.55;1.60;;;20.40;99.90;;;;;;4981359;28;20046;-62
2022/06/09 09:53:19;;;;;;;7.93;1.40;;;20.30;99.90;;;;;;4980355;28;20364;-61
2022/06/09 09:55:53;;;;;;;6.80;1.30;;;20.40;99.90;;;;;;4998708;28;20065;-62
2022/06/09 09:58:21;;;;;;;6.43;1.50;;;20.30;99.90;;;;;;5000197;28;20046;-62
2022/06/09 10:00:53;;;;;;;5.07;1.30;;;20.50;99.90;;;;;;4997484;28;20114;-61
2022/06/09 10:09:26;;;;;;;4.60;1.20;;;20.30;99.90;;;;;;4978277;28;20046;-62
2022/06/09 10:11:56;;;;;;;8.00;1.50;;;20.40;99.90;;;;;;4996328;28;20078;-64
2022/06/09 10:14:39;;;;;;;5.05;1.20;;;20.40;99.90;;;;;;4999259;28;20050;-61
2022/06/09 10:17:25;;;;;;;6.13;1.27;;;20.40;99.90;;;;;;4982519;28;20050;-61
2022/06/09 10:20:15;;;;;;;4.15;1.15;;;20.40;99.90;;;;;;4977154;28;20046;-61
2022/06/09 10:22:53;;;;;;;4.10;1.20;;;20.60;99.90;;;;;;4997374;28;20058;-62
2022/06/09 10:25:19;;;;;;;5.07;1.20;;;20.60;99.90;;;;;;4997693;28;20050;-64
2022/06/09 10:27:49;;;;;;;4.57;1.45;;;20.70;99.90;;;;;;4980419;28;20068;-61
2022/06/09 10:30:25;;;;;;;5.03;1.20;;;20.50;99.90;;;;;;4979695;28;20274;-61
2022/06/09 10:32:56;;;;;;;4.45;1.23;;;20.60;99.90;;;;;;4994507;28;20037;-63
2022/06/09 10:35:36;;;;;;;5.38;1.33;;;20.50;99.90;;;;;;4999802;28;20145;-62
2022/06/09 10:38:18;;;;;;;3.60;1.30;;;20.70;99.90;;;;;;4977515;28;20203;-63
2022/06/09 10:40:54;;;;;;;7.57;1.65;;;20.60;99.90;;;;;;4979907;28;20038;-64
2022/06/09 10:43:39;;;;;;;4.97;1.38;;;20.60;99.90;;;;;;4981350;28;20042;-63
2022/06/09 10:46:43;;;;;;;6.18;1.60;;;20.50;99.90;;;;;;4999146;28;20041;-62
2022/06/09 10:55:48;;;;;;;6.85;1.50;;;20.60;99.90;;;;;;4996199;28;20050;-63
2022/06/09 10:58:33;;;;;;;5.53;1.70;;;20.70;99.90;;;;;;4996090;28;20254;-63
2022/06/09 11:00:59;;;;;;;6.57;1.50;;;20.80;99.90;;;;;;4986157;28;20042;-64
2022/06/09 11:03:46;;;;;;;8.25;1.70;;;20.60;99.90;;;;;;4987887;28;20176;-63
2022/06/09 11:06:23;;;;;;;6.60;1.70;;;20.70;99.90;;;;;;4991608;28;20088;-64
2022/06/09 11:09:37;;;;;;;8.27;1.83;;;20.70;99.90;;;;;;5003596;28;20052;-63
2022/06/09 11:12:02;;;;;;;5.60;1.70;;;20.80;99.90;;;;;;4895605;29;20154;-64
2022/06/09 11:14:37;;;;;;;6.55;1.52;;;20.90;99.90;;;;;;4980708;28;20589;-63
2022/06/09 11:17:11;;;;;;;7.22;1.67;;;20.80;99.90;;;;;;4984230;28;20033;-63
2022/06/09 11:19:45;;;;;;;6.10;2.15;;;20.80;99.90;;;;;;4997238;28;20091;-64
2022/06/09 11:22:14;;;;;;;7.43;1.77;;;20.70;99.90;;;;;;4980715;28;20091;-63
2022/06/09 11:24:56;;;;;;;8.32;1.92;;;20.70;99.90;;;;;;5001826;28;20103;-64
2022/06/09 11:27:38;;;;;;;7.28;2.33;;;20.70;99.90;;;;;;4999124;28;20045;-65
2022/06/09 11:30:15;;;;;;;8.23;1.88;;;20.90;99.90;;;;;;4997661;28;20038;-64
2022/06/09 11:33:03;;;;;;;9.20;2.45;;;20.80;99.90;;;;;;4993040;28;20052;-63
2022/06/09 11:35:48;;;;;;;7.38;1.55;;;20.90;99.90;;;;;;4985365;28;20038;-64
2022/06/09 11:38:28;;;;;;;7.85;1.70;;;20.80;99.90;;;;;;4996569;28;20045;-64
2022/06/09 11:41:03;;;;;;;5.15;1.38;;;20.70;99.90;;;;;;4982261;28;20126;-64
2022/06/09 11:43:48;;;;;;;4.97;1.40;;;20.80;99.90;;;;;;5000309;28;20455;-65
2022/06/09 11:46:22;;;;;;;;;;;20.70;99.90;;;;;;4999324;28;20053;-64
2022/06/09 11:48:52;;;;;;;6.30;1.38;;;20.80;99.90;;;;;;5000674;28;19918;-64
2022/06/09 11:51:20;;;;;;;3.55;1.60;;;20.70;99.90;;;;;;4999787;28;20042;-63
2022/06/09 11:53:49;;;;;;;7.50;1.55;;;20.80;99.90;;;;;;5002458;28;20056;-64
2022/06/09 11:59:42;;;;;;;7.15;1.73;;;20.60;99.90;;;;;;4983857;28;20070;-63
2022/06/09 12:02:42;;;;;;;7.15;1.63;;;20.70;99.90;;;;;;4982168;28;20107;-63
2022/06/09 12:05:14;;;;;;;9.25;2.15;;;20.60;99.90;;;;;;5002039;28;20098;-64
2022/06/09 12:08:04;;;;;;;5.05;1.90;;;20.90;99.90;;;;;;4984069;28;20463;-64
2022/06/09 12:10:31;;;;;;;8.98;1.70;;;20.90;99.90;;;;;;4981762;28;20033;-63
2022/06/09 12:13:12;;;;;;;8.23;1.88;;;21.00;99.90;;;;;;4999902;28;20046;-62
2022/06/09 12:16:02;;;;;;;12.82;2.20;;;21.00;99.90;;;;;;4999517;28;20084;-63
2022/06/09 12:18:38;;;;;;;6.15;1.70;;;21.00;99.90;;;;;;5001675;28;20038;-62
2022/06/09 12:21:12;;;;;;;8.10;2.50;;;21.00;99.90;;;;;;5000221;28;20043;-63
2022/06/09 12:23:43;;;;;;;6.75;2.00;;;21.10;99.90;;;;;;4999908;28;20040;-63
2022/06/09 12:26:18;;;;;;;8.25;2.00;;;21.10;99.90;;;;;;4982792;28;20077;-62
2022/06/09 12:28:53;;;;;;;6.88;1.77;;;21.00;99.90;;;;;;4999966;28;20121;-61
2022/06/09 12:31:24;;;;;;;9.57;2.00;;;20.80;99.90;;;;;;4998447;28;20071;-63
2022/06/09 12:34:00;;;;;;;5.43;1.80;;;20.80;99.90;;;;;;4968609;28;20459;-64
2022/06/09 12:36:35;;;;;;;6.45;1.80;;;20.90;99.90;;;;;;4983516;28;20045;-62
2022/06/09 12:39:05;;;;;;;9.50;1.80;;;21.10;99.90;;;;;;4999596;28;20404;-63
2022/06/09 12:41:38;;;;;;;9.57;1.92;;;21.10;99.90;;;;;;4996301;28;20059;-63
2022/06/09 12:44:22;;;;;;;7.97;2.25;;;21.20;99.90;;;;;;5001507;28;20080;-61
2022/06/09 12:46:56;;;;;;;8.02;2.22;;;21.20;99.90;;;;;;4984104;28;20442;-62
2022/06/09 12:49:30;;;;;;;7.65;2.00;;;21.10;99.90;;;;;;4999025;28;20044;-60
2022/06/09 12:51:56;;;;;;;4.28;1.50;;;21.10;99.90;;;;;;4997461;28;20038;-61
2022/06/09 12:54:35;;;;;;;12.20;2.00;;;21.20;99.90;;;;;;5000057;28;20060;-61
2022/06/09 12:57:03;;;;;;;8.05;1.73;;;21.30;99.90;;;;;;4997370;28;20461;-63
2022/06/09 12:59:39;;;;;;;8.98;1.75;;;21.20;99.90;;;;;;5000248;28;20061;-63
2022/06/09 13:02:18;;;;;;;10.93;1.70;;;21.20;99.90;;;;;;5001051;28;20035;-63
2022/06/09 13:04:55;;;;;;;6.70;2.08;;;21.30;99.90;;;;;;5001322;28;20031;-62
2022/06/09 13:07:24;;;;;;;8.57;1.60;;;21.40;99.90;;;;;;5000065;28;20066;-62
2022/06/09 13:10:27;;;;;;;7.80;1.70;;;21.50;99.90;;;;;;4977764;28;20045;-62
2022/06/09 13:13:02;;;;;;;11.48;2.20;;;21.30;99.90;;;;;;4997279;28;20539;-62
2022/06/09 13:15:37;;;;;;;5.75;1.73;;;21.40;99.90;;;;;;5000939;28;20042;-62
2022/06/09 13:18:41;;;;;;;3.90;1.30;;;21.50;99.90;;;;;;4983181;28;20045;-62
2022/06/09 13:21:32;;;;;;;7.70;2.10;;;21.50;99.90;;;;;;4964855;28;20043;-63
2022/06/09 13:24:00;;;;;;;7.15;1.52;;;21.60;99.90;;;;;;4981622;28;20167;-62
2022/06/09 13:26:35;;;;;;;5.55;1.67;;;21.60;99.90;;;;;;4999318;28;20065;-62
2022/06/09 13:29:05;;;;;;;6.75;1.90;;;21.50;99.90;;;;;;4999784;28;20034;-62